Pagrindinis puslapis
METAR-TAF:

METAR-TAF

Oro uostai :

Sitka, Aliaska, Jungtinės Amerikos Valstijos

platuma: 57-02-53N, ilguma: 135-21-53W, Aukštis: 6 m

Dabartinis oras

Ataskaita buvo paskelbta 1 valandą ir 8 minutes, ne 09:53 UTC
Vėjas 3 kt iš Rytų
Temperatūra 6°C
Drėgmė 87%
Slėgis 1014 hPa
Matomumas: 16.1 km
Išsisklaidę debesys ne aukštis 5000 ft

METAR: PASI 050953Z 09003KT 10SM SCT050 06/04 A2993 RMK AO2 SLP137 T00610044

Laikas: 03:01 (11:01 UTC)

Prognozė

Ataskaita buvo paskelbta 5 valandos ir 31 minutes, ne 05:30 UTC
Prognozė galioja nuo 05 metu 06 UTC su 06 metu 06 UTC
Vėjas 5 kt nuo kintamojo kryptimis
Matomumas: 10 km
Mažai debesys ne aukštis 2000 ft
Su prošvaistėmis ne aukštis 5000 ft
Liūtis kaimynystėje
Nuo 06 metu 0300 UTC
Vėjas 4 kt iš Šiaurės Vakarų
Matomumas: 10 km
Išsisklaidę debesys ne aukštis 10000 ft

TAF: PASI 050530Z 0506/0606 VRB05KT P6SM VCSH FEW020 BKN050 FM060300 31004KT P6SM SCT100

Orai ataskaitas ir orų prognozės (METAR, TAF).

turimą stotys yra geltonos ir raudonos taškus žemėlapyje.

Perkelti pele per norėdami pamatyti stoties vardą.

Tada spustelėkite, norėdami matyti oro stebėjimo ir prognozės.

Norėdami pakeisti žemėlapį: spustelėkite ant žalios mygtukų su juodo kryžiaus žemyn,; žalią mygtuką su brūkšneliu, jei norite nutolinti; arba žalių rodyklių gretimoms žemėlapius.


METAR-TAF: